createdAt,value
2023-04-25T00:00:04.946Z,99308.22
2023-04-25T00:00:36.689Z,99303.91
2023-04-25T00:01:08.232Z,99308.69
2023-04-25T00:01:39.824Z,99305.03
2023-04-25T00:02:11.570Z,99301.41
2023-04-25T00:02:43.489Z,99309.09
2023-04-25T00:03:15.543Z,99304.19
2023-04-25T00:03:47.502Z,99298.88
2023-04-25T00:04:19.633Z,99292.75
2023-04-25T00:04:51.715Z,99296.91
2023-04-25T00:05:24.353Z,99296.22
2023-04-25T00:05:56.242Z,99297.06
2023-04-25T00:06:28.016Z,99295.25
2023-04-25T00:06:59.929Z,99300.56
2023-04-25T00:07:31.629Z,99300.72
2023-04-25T00:08:03.220Z,99300.72
2023-04-25T00:08:34.827Z,99294.53
2023-04-25T00:09:06.640Z,99299.72
2023-04-25T00:09:38.338Z,99297.91
2023-04-25T00:10:10.440Z,99297.75
2023-04-25T00:10:42.062Z,99304.06
2023-04-25T00:11:13.609Z,99305.03
2023-04-25T00:11:45.184Z,99305.72
2023-04-25T00:12:16.767Z,99298.88
2023-04-25T00:12:48.456Z,99307.00
2023-04-25T00:13:19.968Z,99299.03
2023-04-25T00:13:51.718Z,99309.38
2023-04-25T00:14:23.393Z,99301.41
2023-04-25T00:14:55.579Z,99308.69
2023-04-25T00:15:27.206Z,99315.66
2023-04-25T00:15:58.830Z,99315.66
2023-04-25T00:16:30.607Z,99313.69
2023-04-25T00:17:02.444Z,99310.34
2023-04-25T00:17:34.122Z,99313.00
2023-04-25T00:18:05.875Z,99314.84
2023-04-25T00:18:37.526Z,99312.88
2023-04-25T00:19:09.160Z,99314.00
2023-04-25T00:19:40.754Z,99312.31
2023-04-25T00:20:12.698Z,99324.63
2023-04-25T00:20:44.293Z,99312.03
2023-04-25T00:21:15.875Z,99313.00
2023-04-25T00:21:47.468Z,99317.63
2023-04-25T00:22:19.086Z,99313.16
2023-04-25T00:22:50.777Z,99315.66
2023-04-25T00:23:22.487Z,99313.16
2023-04-25T00:23:54.113Z,99314.00
2023-04-25T00:24:25.708Z,99313.00
2023-04-25T00:24:57.295Z,99314.97
2023-04-25T00:25:29.018Z,99318.31
2023-04-25T00:26:00.654Z,99318.47
2023-04-25T00:26:32.263Z,99309.66
2023-04-25T00:27:03.976Z,99323.09
2023-04-25T00:27:35.615Z,99315.94
2023-04-25T00:28:07.156Z,99318.47
2023-04-25T00:28:38.745Z,99319.31
2023-04-25T00:29:10.336Z,99313.28
2023-04-25T00:29:41.933Z,99308.97
2023-04-25T00:30:13.834Z,99317.78
2023-04-25T00:30:45.605Z,99307.28
2023-04-25T00:31:17.252Z,99312.31
2023-04-25T00:31:48.954Z,99313.00
2023-04-25T00:32:20.593Z,99322.94
2023-04-25T00:32:52.248Z,99319.31
2023-04-25T00:33:23.927Z,99317.50
2023-04-25T00:33:55.552Z,99315.94
2023-04-25T00:34:27.077Z,99322.94
2023-04-25T00:34:58.720Z,99318.59
2023-04-25T00:35:30.280Z,99313.56
2023-04-25T00:36:01.833Z,99313.44
2023-04-25T00:36:33.444Z,99313.28
2023-04-25T00:37:05.015Z,99314.00
2023-04-25T00:37:36.702Z,99309.53
2023-04-25T00:38:08.334Z,99313.16
2023-04-25T00:38:39.992Z,99312.88
2023-04-25T00:39:11.506Z,99316.53
2023-04-25T00:39:43.182Z,99310.50
2023-04-25T00:40:14.931Z,99309.53
2023-04-25T00:40:46.614Z,99310.34
2023-04-25T00:41:18.157Z,99308.38
2023-04-25T00:41:49.750Z,99312.03
2023-04-25T00:42:21.380Z,99316.66
2023-04-25T00:42:53.082Z,99308.69
2023-04-25T00:43:29.063Z,99309.53
2023-04-25T00:44:00.691Z,99313.00
2023-04-25T00:44:32.288Z,99309.38
2023-04-25T00:45:05.383Z,99307.53
2023-04-25T00:45:37.123Z,99310.34
2023-04-25T00:46:08.791Z,99315.81
2023-04-25T00:46:40.481Z,99307.00
2023-04-25T00:47:12.181Z,99301.69
2023-04-25T00:47:43.756Z,99307.00
2023-04-25T00:48:15.456Z,99304.19
2023-04-25T00:48:47.060Z,99302.38
2023-04-25T00:49:18.619Z,99304.19
2023-04-25T00:49:50.235Z,99300.56
2023-04-25T00:50:21.869Z,99307.53
2023-04-25T00:50:54.310Z,99309.22
2023-04-25T00:51:25.874Z,99306.72
2023-04-25T00:51:57.468Z,99306.72
2023-04-25T00:52:29.094Z,99312.19
2023-04-25T00:53:00.663Z,99304.06
2023-04-25T00:53:32.290Z,99309.22
2023-04-25T00:54:03.939Z,99308.69
2023-04-25T00:54:35.579Z,99312.31
2023-04-25T00:55:07.529Z,99314.00
2023-04-25T00:55:39.149Z,99313.00
2023-04-25T00:56:10.786Z,99308.69
2023-04-25T00:56:42.472Z,99308.69
2023-04-25T00:57:14.107Z,99300.88
2023-04-25T00:57:45.726Z,99314.00
2023-04-25T00:58:19.947Z,99314.00
2023-04-25T00:58:51.607Z,99310.63
2023-04-25T00:59:23.189Z,99306.31
2023-04-25T00:59:54.863Z,99307.00
2023-04-25T01:00:26.547Z,99312.31
2023-04-25T01:00:58.128Z,99313.28
2023-04-25T01:01:29.765Z,99313.28
2023-04-25T01:02:01.495Z,99311.63
2023-04-25T01:02:33.587Z,99311.34
2023-04-25T01:03:05.460Z,99306.19
2023-04-25T01:03:38.472Z,99314.00
2023-04-25T01:04:10.320Z,99312.03
2023-04-25T01:04:42.010Z,99312.03
2023-04-25T01:05:13.588Z,99305.91
2023-04-25T01:05:45.229Z,99314.84
2023-04-25T01:06:16.993Z,99309.53
2023-04-25T01:06:48.935Z,99310.63
2023-04-25T01:07:20.670Z,99315.13
2023-04-25T01:07:52.279Z,99318.47
2023-04-25T01:08:24.564Z,99313.16
2023-04-25T01:08:56.181Z,99314.28
2023-04-25T01:09:28.066Z,99315.94
2023-04-25T01:09:59.711Z,99314.28
2023-04-25T01:10:31.305Z,99309.81
2023-04-25T01:11:02.904Z,99308.97
2023-04-25T01:11:34.498Z,99315.94
2023-04-25T01:12:06.154Z,99317.63
2023-04-25T01:12:37.829Z,99314.00
2023-04-25T01:13:09.438Z,99317.78
2023-04-25T01:13:40.986Z,99319.59
2023-04-25T01:14:12.524Z,99308.97
2023-04-25T01:14:44.098Z,99325.06
2023-04-25T01:15:15.681Z,99308.97
2023-04-25T01:15:47.285Z,99317.09
2023-04-25T01:16:19.150Z,99319.88
2023-04-25T01:16:54.224Z,99325.75
2023-04-25T01:17:25.861Z,99317.63
2023-04-25T01:17:58.086Z,99310.63
2023-04-25T01:18:29.782Z,99319.31
2023-04-25T01:19:01.405Z,99319.47
2023-04-25T01:19:33.036Z,99320.28
2023-04-25T01:20:04.977Z,99322.25
2023-04-25T01:20:36.602Z,99319.47
2023-04-25T01:21:08.767Z,99317.63
2023-04-25T01:21:40.429Z,99316.94
2023-04-25T01:22:12.044Z,99314.28
2023-04-25T01:22:43.887Z,99319.31
2023-04-25T01:23:15.517Z,99310.50
2023-04-25T01:23:47.157Z,99318.19
2023-04-25T01:24:18.711Z,99318.19
2023-04-25T01:24:50.300Z,99316.53
2023-04-25T01:25:22.235Z,99316.53
2023-04-25T01:25:53.857Z,99314.00
2023-04-25T01:26:25.437Z,99309.66
2023-04-25T01:26:57.012Z,99312.31
2023-04-25T01:27:28.850Z,99315.66
2023-04-25T01:28:00.556Z,99311.22
2023-04-25T01:28:32.173Z,99316.53
2023-04-25T01:29:05.086Z,99319.31
2023-04-25T01:29:36.722Z,99314.69
2023-04-25T01:30:08.585Z,99316.94
2023-04-25T01:30:40.250Z,99316.81
2023-04-25T01:31:12.330Z,99313.28
2023-04-25T01:31:43.976Z,99310.63
2023-04-25T01:32:15.741Z,99314.97
2023-04-25T01:32:47.426Z,99315.66
2023-04-25T01:33:19.107Z,99308.84
2023-04-25T01:33:50.915Z,99311.50
2023-04-25T01:34:22.607Z,99312.31
2023-04-25T01:34:54.246Z,99314.97
2023-04-25T01:35:26.007Z,99314.16
2023-04-25T01:35:57.634Z,99314.00
2023-04-25T01:36:32.162Z,99311.22
2023-04-25T01:37:03.799Z,99309.38
2023-04-25T01:37:35.675Z,99312.47
2023-04-25T01:38:07.221Z,99312.47
2023-04-25T01:38:38.836Z,99311.63
2023-04-25T01:39:10.497Z,99316.94
2023-04-25T01:39:42.073Z,99317.78
2023-04-25T01:40:13.661Z,99311.50
2023-04-25T01:40:45.993Z,99319.31
2023-04-25T01:41:17.571Z,99314.97
2023-04-25T01:41:49.273Z,99311.34
2023-04-25T01:42:21.029Z,99317.50
2023-04-25T01:42:52.672Z,99308.13
2023-04-25T01:43:24.282Z,99316.81
2023-04-25T01:43:55.977Z,99314.28
2023-04-25T01:44:27.571Z,99312.47
2023-04-25T01:44:59.188Z,99310.09
2023-04-25T01:45:30.790Z,99317.78
2023-04-25T01:46:02.399Z,99314.00
2023-04-25T01:46:34.377Z,99314.97
2023-04-25T01:47:06.042Z,99313.28
2023-04-25T01:47:37.954Z,99314.97
2023-04-25T01:48:10.002Z,99318.59
2023-04-25T01:48:41.712Z,99317.63
2023-04-25T01:49:13.249Z,99326.56
2023-04-25T01:49:44.865Z,99315.81
2023-04-25T01:50:17.140Z,99321.25
2023-04-25T01:50:48.791Z,99325.59
2023-04-25T01:51:20.388Z,99319.31
2023-04-25T01:51:51.985Z,99328.28
2023-04-25T01:52:23.559Z,99326.56
2023-04-25T01:52:55.137Z,99325.31
2023-04-25T01:53:26.654Z,99327.16
2023-04-25T01:54:00.811Z,99328.28
2023-04-25T01:54:32.608Z,99330.09
2023-04-25T01:55:04.366Z,99322.94
2023-04-25T01:55:35.957Z,99324.63
2023-04-25T01:56:07.820Z,99328.28
2023-04-25T01:56:39.391Z,99320.44
2023-04-25T01:57:11.622Z,99331.06
2023-04-25T01:57:43.284Z,99332.63
2023-04-25T01:58:14.975Z,99331.59
2023-04-25T01:58:46.655Z,99334.41
2023-04-25T01:59:19.180Z,99326.56
2023-04-25T01:59:50.959Z,99331.06
2023-04-25T02:00:22.689Z,99330.25
2023-04-25T02:00:54.297Z,99334.41
2023-04-25T02:01:26.028Z,99332.63
2023-04-25T02:01:57.689Z,99331.91
2023-04-25T02:02:29.711Z,99332.75
2023-04-25T02:03:01.449Z,99331.06
2023-04-25T02:03:33.379Z,99327.44
2023-04-25T02:04:05.429Z,99331.75
2023-04-25T02:04:37.305Z,99339.72
2023-04-25T02:05:09.095Z,99336.94
2023-04-25T02:05:40.674Z,99335.13
2023-04-25T02:06:12.297Z,99339.44
2023-04-25T02:06:43.928Z,99341.56
2023-04-25T02:07:15.617Z,99339.59
2023-04-25T02:07:47.791Z,99338.47
2023-04-25T02:08:19.420Z,99348.41
2023-04-25T02:08:50.991Z,99344.91
2023-04-25T02:09:23.321Z,99345.19
2023-04-25T02:09:54.891Z,99347.84
2023-04-25T02:10:26.489Z,99344.50
2023-04-25T02:10:58.279Z,99351.50
2023-04-25T02:11:30.036Z,99350.78
2023-04-25T02:12:01.860Z,99342.53
2023-04-25T02:12:33.677Z,99348.84
2023-04-25T02:13:05.441Z,99345.19
2023-04-25T02:13:37.123Z,99354.84
2023-04-25T02:14:08.925Z,99350.34
2023-04-25T02:14:40.605Z,99352.19
2023-04-25T02:15:12.236Z,99345.19
2023-04-25T02:15:43.944Z,99355.66
2023-04-25T02:16:15.735Z,99353.88
2023-04-25T02:16:47.778Z,99354.56
2023-04-25T02:17:19.533Z,99349.25
2023-04-25T02:17:51.272Z,99350.34
2023-04-25T02:18:22.985Z,99357.22
2023-04-25T02:18:54.624Z,99351.34
2023-04-25T02:19:26.165Z,99342.38
2023-04-25T02:19:57.800Z,99346.19
2023-04-25T02:20:29.882Z,99348.56
2023-04-25T02:21:01.720Z,99348.69
2023-04-25T02:21:33.370Z,99335.97
2023-04-25T02:22:05.008Z,99338.75
2023-04-25T02:22:36.628Z,99349.25
2023-04-25T02:23:08.231Z,99347.84
2023-04-25T02:23:39.809Z,99341.69
2023-04-25T02:24:11.454Z,99339.88
2023-04-25T02:24:42.997Z,99345.75
2023-04-25T02:25:14.607Z,99344.75
2023-04-25T02:25:46.201Z,99344.91
2023-04-25T02:26:17.771Z,99342.25
2023-04-25T02:26:49.408Z,99345.03
2023-04-25T02:27:21.050Z,99344.22
2023-04-25T02:27:52.749Z,99341.69
2023-04-25T02:28:24.747Z,99344.63
2023-04-25T02:28:56.969Z,99341.84
2023-04-25T02:29:28.601Z,99343.53
2023-04-25T02:30:00.203Z,99346.19
2023-04-25T02:30:31.746Z,99340.00
2023-04-25T02:31:03.383Z,99345.47
2023-04-25T02:31:34.979Z,99341.84
2023-04-25T02:32:06.685Z,99350.63
2023-04-25T02:32:38.366Z,99344.50
2023-04-25T02:33:10.156Z,99348.97
2023-04-25T02:33:41.802Z,99348.97
2023-04-25T02:34:13.405Z,99349.81
2023-04-25T02:34:44.958Z,99347.84
2023-04-25T02:35:16.540Z,99347.00
2023-04-25T02:35:48.149Z,99354.84
2023-04-25T02:36:19.726Z,99347.56
2023-04-25T02:36:51.299Z,99349.38
2023-04-25T02:37:22.899Z,99354.84
2023-04-25T02:37:54.477Z,99347.84
2023-04-25T02:38:26.093Z,99349.66
2023-04-25T02:38:57.700Z,99348.97
2023-04-25T02:39:29.272Z,99355.13
2023-04-25T02:40:00.938Z,99354.31
2023-04-25T02:40:32.642Z,99341.16
2023-04-25T02:41:04.429Z,99352.75
2023-04-25T02:41:36.057Z,99353.44
2023-04-25T02:42:07.646Z,99344.50
2023-04-25T02:42:39.318Z,99350.78
2023-04-25T02:43:10.919Z,99354.31
2023-04-25T02:43:45.890Z,99354.31
2023-04-25T02:44:17.221Z,99352.47
2023-04-25T02:44:48.698Z,99353.44
2023-04-25T02:45:20.141Z,99351.63
2023-04-25T02:45:51.490Z,99356.97
2023-04-25T02:46:32.061Z,99353.16
2023-04-25T02:47:09.577Z,99357.78
2023-04-25T02:47:41.012Z,99349.81
2023-04-25T02:48:12.492Z,99356.69
2023-04-25T02:48:43.928Z,99349.53
2023-04-25T02:49:15.381Z,99355.66
2023-04-25T02:49:46.798Z,99356.53
2023-04-25T02:50:18.235Z,99355.97
2023-04-25T02:50:49.774Z,99358.47
2023-04-25T02:51:21.191Z,99356.97
2023-04-25T02:51:52.534Z,99355.97
2023-04-25T02:52:23.917Z,99360.16
2023-04-25T02:52:55.352Z,99356.53
2023-04-25T02:53:26.761Z,99357.50
2023-04-25T02:53:58.152Z,99358.47
2023-04-25T02:54:29.631Z,99356.53
2023-04-25T02:55:00.971Z,99353.72
2023-04-25T02:55:32.374Z,99352.03
2023-04-25T02:56:03.954Z,99359.88
2023-04-25T02:56:35.317Z,99356.53
2023-04-25T02:57:06.813Z,99360.16
2023-04-25T02:57:38.173Z,99365.47
2023-04-25T02:58:09.600Z,99355.81
2023-04-25T02:58:41.214Z,99351.06
2023-04-25T02:59:12.610Z,99359.19
2023-04-25T02:59:44.046Z,99354.31
2023-04-25T03:00:15.481Z,99354.31
2023-04-25T03:00:46.870Z,99355.13
2023-04-25T03:01:18.376Z,99360.44
2023-04-25T03:01:49.814Z,99369.97
2023-04-25T03:02:21.193Z,99358.47
2023-04-25T03:02:52.682Z,99358.47
2023-04-25T03:03:24.253Z,99350.63
2023-04-25T03:03:55.894Z,99358.75
2023-04-25T03:04:27.528Z,99354.44
2023-04-25T03:04:58.907Z,99348.13
2023-04-25T03:05:30.270Z,99352.47
2023-04-25T03:06:01.678Z,99352.59
2023-04-25T03:06:33.024Z,99357.09
2023-04-25T03:07:04.695Z,99362.41
2023-04-25T03:07:36.146Z,99357.25
2023-04-25T03:08:07.583Z,99359.63
2023-04-25T03:08:38.942Z,99362.13
2023-04-25T03:09:10.263Z,99357.63
2023-04-25T03:09:41.637Z,99355.97
2023-04-25T03:10:13.060Z,99361.13
2023-04-25T03:10:44.849Z,99361.28
2023-04-25T03:11:16.232Z,99362.13
2023-04-25T03:11:47.609Z,99360.16
2023-04-25T03:12:19.090Z,99361.13
2023-04-25T03:12:50.432Z,99363.78
2023-04-25T03:13:21.828Z,99364.78
2023-04-25T03:13:53.400Z,99363.78
2023-04-25T03:14:24.782Z,99361.00
2023-04-25T03:14:56.146Z,99361.00
2023-04-25T03:15:27.527Z,99363.78
2023-04-25T03:15:58.937Z,99360.31
2023-04-25T03:16:30.302Z,99363.78
2023-04-25T03:17:01.715Z,99358.75
2023-04-25T03:17:33.406Z,99363.78
2023-04-25T03:18:04.946Z,99358.47
2023-04-25T03:18:36.344Z,99360.44
2023-04-25T03:19:07.735Z,99363.09
2023-04-25T03:19:39.101Z,99354.31
2023-04-25T03:20:10.848Z,99360.44
2023-04-25T03:20:42.219Z,99360.44
2023-04-25T03:21:13.577Z,99362.97
2023-04-25T03:21:45.022Z,99364.66
2023-04-25T03:22:16.387Z,99358.75
2023-04-25T03:22:47.748Z,99359.47
2023-04-25T03:23:19.126Z,99362.97
2023-04-25T03:23:50.778Z,99361.28
2023-04-25T03:24:22.370Z,99364.94
2023-04-25T03:24:53.849Z,99363.25
2023-04-25T03:25:25.280Z,99365.06
2023-04-25T03:25:56.657Z,99367.72
2023-04-25T03:26:27.991Z,99366.03
2023-04-25T03:26:59.305Z,99364.94
2023-04-25T03:27:30.727Z,99362.41
2023-04-25T03:28:02.181Z,99357.94
2023-04-25T03:28:33.603Z,99364.06
2023-04-25T03:29:04.992Z,99355.13
2023-04-25T03:29:36.288Z,99367.44
2023-04-25T03:30:07.940Z,99362.13
2023-04-25T03:30:39.382Z,99359.63
2023-04-25T03:31:10.802Z,99369.53
2023-04-25T03:31:42.182Z,99362.41
2023-04-25T03:32:13.898Z,99361.41
2023-04-25T03:32:45.487Z,99362.41
2023-04-25T03:33:16.930Z,99366.03
2023-04-25T03:33:48.478Z,99371.22
2023-04-25T03:34:19.932Z,99367.44
2023-04-25T03:34:51.350Z,99369.38
2023-04-25T03:35:22.733Z,99369.38
2023-04-25T03:35:54.172Z,99367.44
2023-04-25T03:36:25.621Z,99367.44
2023-04-25T03:36:57.044Z,99370.78
2023-04-25T03:37:28.417Z,99371.06
2023-04-25T03:37:59.744Z,99369.09
2023-04-25T03:38:31.149Z,99370.09
2023-04-25T03:39:02.529Z,99367.59
2023-04-25T03:39:33.879Z,99365.91
2023-04-25T03:40:05.601Z,99373.03
2023-04-25T03:40:37.081Z,99371.91
2023-04-25T03:41:08.517Z,99370.09
2023-04-25T03:41:39.949Z,99362.97
2023-04-25T03:42:11.335Z,99374.41
2023-04-25T03:42:44.876Z,99370.78
2023-04-25T03:43:16.576Z,99375.28
2023-04-25T03:43:48.834Z,99376.38
2023-04-25T03:44:20.434Z,99373.88
2023-04-25T03:44:52.274Z,99377.22
2023-04-25T03:45:23.688Z,99369.38
2023-04-25T03:45:55.152Z,99375.41
2023-04-25T03:46:26.680Z,99375.56
2023-04-25T03:46:58.053Z,99376.38
2023-04-25T03:47:29.498Z,99376.38
2023-04-25T03:48:00.978Z,99372.63
2023-04-25T03:48:32.513Z,99378.06
2023-04-25T03:49:03.901Z,99386.19
2023-04-25T03:49:35.321Z,99377.50
2023-04-25T03:50:06.930Z,99387.28
2023-04-25T03:50:38.330Z,99382.25
2023-04-25T03:51:09.755Z,99384.22
2023-04-25T03:51:41.213Z,99386.88
2023-04-25T03:52:12.656Z,99382.25
2023-04-25T03:52:44.321Z,99386.75
2023-04-25T03:53:15.811Z,99390.22
2023-04-25T03:53:47.168Z,99392.06
2023-04-25T03:54:18.566Z,99390.38
2023-04-25T03:54:49.893Z,99384.34
2023-04-25T03:55:21.277Z,99385.34
2023-04-25T03:55:52.625Z,99390.66
2023-04-25T03:56:23.979Z,99380.00
2023-04-25T03:56:55.380Z,99383.38
2023-04-25T03:57:26.696Z,99386.06
2023-04-25T03:57:58.681Z,99389.00
2023-04-25T03:58:30.024Z,99382.66
2023-04-25T03:59:01.393Z,99388.00
2023-04-25T03:59:32.692Z,99388.84
2023-04-25T04:00:04.245Z,99381.00
2023-04-25T04:00:35.910Z,99384.50
2023-04-25T04:01:07.281Z,99379.88
2023-04-25T04:01:38.763Z,99385.34
2023-04-25T04:02:10.237Z,99394.16
2023-04-25T04:02:43.879Z,99383.69
2023-04-25T04:03:16.792Z,99388.00
2023-04-25T04:03:48.479Z,99383.53
2023-04-25T04:04:20.133Z,99383.38
2023-04-25T04:04:51.978Z,99385.19
2023-04-25T04:05:23.457Z,99383.38
2023-04-25T04:05:54.955Z,99387.03
2023-04-25T04:06:26.319Z,99388.00
2023-04-25T04:06:57.658Z,99389.81
2023-04-25T04:07:29.050Z,99387.03
2023-04-25T04:08:00.490Z,99386.19
2023-04-25T04:08:32.051Z,99386.19
2023-04-25T04:09:03.687Z,99394.03
2023-04-25T04:09:35.047Z,99387.03
2023-04-25T04:10:07.484Z,99383.38
2023-04-25T04:10:38.917Z,99395.13
2023-04-25T04:11:10.312Z,99390.66
2023-04-25T04:11:41.632Z,99390.38
2023-04-25T04:12:13.004Z,99399.47
2023-04-25T04:12:44.564Z,99394.16
2023-04-25T04:13:15.930Z,99399.47
2023-04-25T04:13:47.391Z,99397.66
2023-04-25T04:14:18.799Z,99402.97
2023-04-25T04:14:50.180Z,99400.44
2023-04-25T04:15:21.513Z,99402.97
2023-04-25T04:15:52.880Z,99400.16
2023-04-25T04:16:24.423Z,99401.84
2023-04-25T04:16:55.819Z,99395.69
2023-04-25T04:17:27.261Z,99395.00
2023-04-25T04:17:58.678Z,99402.97
2023-04-25T04:18:30.296Z,99398.63
2023-04-25T04:19:01.689Z,99404.66
2023-04-25T04:19:32.978Z,99394.03
2023-04-25T04:20:04.669Z,99402.97
2023-04-25T04:20:36.023Z,99398.34
2023-04-25T04:21:07.396Z,99404.50
2023-04-25T04:21:38.727Z,99403.78
2023-04-25T04:22:10.185Z,99401.00
2023-04-25T04:22:41.619Z,99402.00
2023-04-25T04:23:13.021Z,99402.97
2023-04-25T04:23:44.420Z,99407.16
2023-04-25T04:24:15.805Z,99405.63
2023-04-25T04:24:47.146Z,99400.59
2023-04-25T04:25:18.584Z,99400.44
2023-04-25T04:25:50.001Z,99402.00
2023-04-25T04:26:21.746Z,99401.28
2023-04-25T04:26:53.069Z,99395.97
2023-04-25T04:27:24.435Z,99398.34
2023-04-25T04:27:55.952Z,99407.31
2023-04-25T04:28:27.400Z,99396.53
2023-04-25T04:28:58.766Z,99402.97
2023-04-25T04:29:30.099Z,99400.03
2023-04-25T04:30:01.421Z,99395.69
2023-04-25T04:30:32.778Z,99401.00
2023-04-25T04:31:04.236Z,99406.44
2023-04-25T04:31:35.686Z,99398.34
2023-04-25T04:32:07.278Z,99402.13
2023-04-25T04:32:38.698Z,99398.34
2023-04-25T04:33:10.210Z,99396.69
2023-04-25T04:33:41.586Z,99396.81
2023-04-25T04:34:12.941Z,99394.84
2023-04-25T04:34:44.251Z,99400.31
2023-04-25T04:35:15.586Z,99399.34
2023-04-25T04:35:47.011Z,99395.81
2023-04-25T04:36:18.369Z,99399.63
2023-04-25T04:36:49.717Z,99404.94
2023-04-25T04:37:21.007Z,99402.97
2023-04-25T04:37:52.349Z,99414.56
2023-04-25T04:38:23.780Z,99410.09
2023-04-25T04:38:55.209Z,99412.63
2023-04-25T04:39:26.679Z,99409.09
2023-04-25T04:39:58.107Z,99417.22
2023-04-25T04:40:29.544Z,99410.25
2023-04-25T04:41:00.915Z,99414.56
2023-04-25T04:41:32.395Z,99417.22
2023-04-25T04:42:03.818Z,99411.06
2023-04-25T04:42:35.256Z,99418.91
2023-04-25T04:43:06.611Z,99416.25
2023-04-25T04:43:38.131Z,99421.56
2023-04-25T04:44:09.595Z,99419.59
2023-04-25T04:44:41.066Z,99413.31
2023-04-25T04:45:12.617Z,99417.94
2023-04-25T04:45:44.006Z,99431.91
2023-04-25T04:46:15.443Z,99420.47
2023-04-25T04:46:47.059Z,99433.59
2023-04-25T04:47:18.449Z,99437.25
2023-04-25T04:47:49.962Z,99442.56
2023-04-25T04:48:21.352Z,99430.38
2023-04-25T04:48:52.773Z,99428.56
2023-04-25T04:49:24.132Z,99439.34
2023-04-25T04:49:55.668Z,99443.53
2023-04-25T04:50:27.149Z,99432.19
2023-04-25T04:50:58.534Z,99435.41
2023-04-25T04:51:29.910Z,99435.41
2023-04-25T04:52:01.317Z,99443.25
2023-04-25T04:52:32.676Z,99439.91
2023-04-25T04:53:05.121Z,99440.88
2023-04-25T04:53:36.460Z,99430.38
2023-04-25T04:54:07.893Z,99436.53
2023-04-25T04:54:39.247Z,99434.84
2023-04-25T04:55:10.725Z,99440.03
2023-04-25T04:55:42.265Z,99433.03
2023-04-25T04:56:13.633Z,99437.50
2023-04-25T04:56:44.990Z,99439.22
2023-04-25T04:57:16.324Z,99441.88
2023-04-25T04:57:47.840Z,99433.03
2023-04-25T04:58:19.318Z,99442.69
2023-04-25T04:58:50.849Z,99436.53
2023-04-25T04:59:22.348Z,99441.13
2023-04-25T04:59:53.772Z,99442.97
2023-04-25T05:00:26.221Z,99436.81
2023-04-25T05:00:59.246Z,99440.44
2023-04-25T05:01:30.687Z,99435.81
2023-04-25T05:02:02.060Z,99442.00
2023-04-25T05:02:33.505Z,99443.09
2023-04-25T05:03:05.155Z,99438.47
2023-04-25T05:03:36.753Z,99449.13
2023-04-25T05:04:08.455Z,99441.44
2023-04-25T05:04:40.379Z,99446.75
2023-04-25T05:05:11.856Z,99447.44
2023-04-25T05:05:43.237Z,99449.13
2023-04-25T05:06:14.608Z,99453.31
2023-04-25T05:06:48.288Z,99445.63
2023-04-25T05:07:20.532Z,99450.81
2023-04-25T05:07:52.184Z,99453.47
2023-04-25T05:08:23.743Z,99454.44
2023-04-25T05:08:55.132Z,99453.88
2023-04-25T05:09:27.252Z,99448.28
2023-04-25T05:09:58.615Z,99446.44
2023-04-25T05:10:29.964Z,99456.13
2023-04-25T05:11:01.388Z,99456.13
2023-04-25T05:11:32.736Z,99452.78
2023-04-25T05:12:04.212Z,99451.63
2023-04-25T05:12:37.012Z,99455.44
2023-04-25T05:13:08.720Z,99456.25
2023-04-25T05:13:40.097Z,99456.25
2023-04-25T05:14:11.439Z,99450.94
2023-04-25T05:14:42.839Z,99453.59
2023-04-25T05:15:14.334Z,99453.75
2023-04-25T05:15:45.640Z,99461.03
2023-04-25T05:16:17.154Z,99459.34
2023-04-25T05:16:48.503Z,99461.72
2023-04-25T05:17:19.879Z,99463.25
2023-04-25T05:17:51.252Z,99461.44
2023-04-25T05:18:23.761Z,99457.22
2023-04-25T05:18:55.286Z,99462.53
2023-04-25T05:19:26.677Z,99459.75
2023-04-25T05:19:58.098Z,99460.75
2023-04-25T05:20:29.490Z,99461.56
2023-04-25T05:21:00.892Z,99463.25
2023-04-25T05:21:32.368Z,99457.81
2023-04-25T05:22:03.864Z,99467.56
2023-04-25T05:22:35.267Z,99461.44
2023-04-25T05:23:06.642Z,99456.41
2023-04-25T05:23:37.955Z,99465.06
2023-04-25T05:24:09.342Z,99466.88
2023-04-25T05:24:40.784Z,99464.22
2023-04-25T05:25:12.306Z,99472.06
2023-04-25T05:25:43.628Z,99467.72
2023-04-25T05:26:15.248Z,99473.16
2023-04-25T05:26:46.722Z,99469.53
2023-04-25T05:27:18.498Z,99468.72
2023-04-25T05:27:49.865Z,99468.56
2023-04-25T05:28:21.268Z,99470.38
2023-04-25T05:28:52.643Z,99471.38
2023-04-25T05:29:23.990Z,99469.69
2023-04-25T05:29:55.560Z,99465.06
2023-04-25T05:30:27.055Z,99471.38
2023-04-25T05:30:58.418Z,99470.38
2023-04-25T05:31:29.879Z,99480.31
2023-04-25T05:32:01.385Z,99471.38
2023-04-25T05:32:32.841Z,99481.00
2023-04-25T05:33:04.431Z,99469.41
2023-04-25T05:33:38.615Z,99475.41
2023-04-25T05:34:10.035Z,99473.75
2023-04-25T05:34:41.408Z,99480.72
2023-04-25T05:35:12.807Z,99476.41
2023-04-25T05:35:44.214Z,99478.34
2023-04-25T05:36:15.649Z,99478.22
2023-04-25T05:36:46.988Z,99483.53
2023-04-25T05:37:18.490Z,99478.34
2023-04-25T05:37:49.849Z,99477.50
2023-04-25T05:38:21.201Z,99478.22
2023-04-25T05:38:52.576Z,99481.16
2023-04-25T05:39:23.939Z,99480.31
2023-04-25T05:39:55.286Z,99483.66
2023-04-25T05:40:26.696Z,99486.03
2023-04-25T05:40:58.053Z,99487.03
2023-04-25T05:41:29.461Z,99489.84
2023-04-25T05:42:00.790Z,99489.69
2023-04-25T05:42:32.233Z,99497.69
2023-04-25T05:43:03.646Z,99492.22
2023-04-25T05:43:35.044Z,99489.69
2023-04-25T05:44:06.427Z,99491.63
2023-04-25T05:44:37.812Z,99495.16
2023-04-25T05:45:09.363Z,99496.94
2023-04-25T05:45:40.761Z,99493.59
2023-04-25T05:46:12.235Z,99496.13
2023-04-25T05:46:43.648Z,99492.50
2023-04-25T05:47:15.034Z,99492.63
2023-04-25T05:47:46.391Z,99501.44
2023-04-25T05:48:17.796Z,99496.94
2023-04-25T05:48:49.128Z,99492.50
2023-04-25T05:49:20.465Z,99502.41
2023-04-25T05:49:51.796Z,99502.25
2023-04-25T05:50:23.158Z,99497.81
2023-04-25T05:50:54.463Z,99504.94
2023-04-25T05:51:25.846Z,99500.59
2023-04-25T05:51:57.197Z,99497.09
2023-04-25T05:52:28.552Z,99499.59
2023-04-25T05:53:00.020Z,99503.00
2023-04-25T05:53:31.506Z,99504.78
2023-04-25T05:54:02.912Z,99503.00
2023-04-25T05:54:34.389Z,99509.97
2023-04-25T05:55:06.073Z,99507.59
2023-04-25T05:55:37.378Z,99502.25
2023-04-25T05:56:08.897Z,99505.78
2023-04-25T05:56:40.278Z,99510.25
2023-04-25T05:57:21.048Z,99502.13
2023-04-25T05:57:52.406Z,99505.78
2023-04-25T05:58:23.800Z,99510.97
2023-04-25T05:58:55.140Z,99510.69
2023-04-25T05:59:26.525Z,99510.09
2023-04-25T05:59:57.886Z,99509.00
2023-04-25T06:00:29.458Z,99504.66
2023-04-25T06:01:00.843Z,99511.78
2023-04-25T06:01:32.182Z,99509.28
2023-04-25T06:02:03.579Z,99510.25
2023-04-25T06:02:35.102Z,99512.91
2023-04-25T06:03:06.894Z,99513.75
2023-04-25T06:03:38.641Z,99515.56
2023-04-25T06:04:10.386Z,99512.75
2023-04-25T06:04:42.050Z,99517.94
2023-04-25T06:05:13.752Z,99516.16
2023-04-25T06:05:45.422Z,99516.28
2023-04-25T06:06:16.748Z,99516.28
2023-04-25T06:06:48.112Z,99512.91
2023-04-25T06:07:22.227Z,99512.91
2023-04-25T06:07:53.585Z,99517.09
2023-04-25T06:08:24.969Z,99517.09
2023-04-25T06:08:56.386Z,99517.94
2023-04-25T06:09:27.817Z,99516.41
2023-04-25T06:09:59.113Z,99513.63
2023-04-25T06:10:30.447Z,99519.91
2023-04-25T06:11:01.801Z,99516.41
2023-04-25T06:11:33.149Z,99519.78